sensor_id;sensor_type;location;lat;lon;timestamp;P1;durP1;ratioP1;P2;durP2;ratioP2
2620;SDS011;1320;48.128;11.592;2023-09-18T00:01:04;6.37;;;4.50;;
2620;SDS011;1320;48.128;11.592;2023-09-18T00:03:31;5.73;;;3.80;;
2620;SDS011;1320;48.128;11.592;2023-09-18T00:05:57;5.50;;;3.53;;
2620;SDS011;1320;48.128;11.592;2023-09-18T00:08:23;6.97;;;4.13;;
2620;SDS011;1320;48.128;11.592;2023-09-18T00:10:49;7.20;;;4.13;;
2620;SDS011;1320;48.128;11.592;2023-09-18T00:13:18;5.67;;;3.97;;
2620;SDS011;1320;48.128;11.592;2023-09-18T00:15:44;5.53;;;4.13;;
2620;SDS011;1320;48.128;11.592;2023-09-18T00:18:12;6.07;;;4.10;;
2620;SDS011;1320;48.128;11.592;2023-09-18T00:20:39;5.90;;;3.90;;
2620;SDS011;1320;48.128;11.592;2023-09-18T00:23:06;5.90;;;4.10;;
2620;SDS011;1320;48.128;11.592;2023-09-18T00:25:33;4.60;;;3.10;;
2620;SDS011;1320;48.128;11.592;2023-09-18T00:27:58;8.67;;;4.97;;
2620;SDS011;1320;48.128;11.592;2023-09-18T00:30:24;15.73;;;6.53;;
2620;SDS011;1320;48.128;11.592;2023-09-18T00:32:50;7.50;;;3.83;;
2620;SDS011;1320;48.128;11.592;2023-09-18T00:35:16;5.90;;;3.80;;
2620;SDS011;1320;48.128;11.592;2023-09-18T00:37:42;4.57;;;3.50;;
2620;SDS011;1320;48.128;11.592;2023-09-18T00:40:08;5.30;;;3.40;;
2620;SDS011;1320;48.128;11.592;2023-09-18T00:42:34;6.73;;;4.53;;
2620;SDS011;1320;48.128;11.592;2023-09-18T00:45:01;4.33;;;2.90;;
2620;SDS011;1320;48.128;11.592;2023-09-18T00:47:27;5.10;;;3.77;;
2620;SDS011;1320;48.128;11.592;2023-09-18T00:49:53;6.30;;;3.47;;
2620;SDS011;1320;48.128;11.592;2023-09-18T00:52:20;11.20;;;4.23;;
2620;SDS011;1320;48.128;11.592;2023-09-18T00:54:47;7.67;;;3.60;;
2620;SDS011;1320;48.128;11.592;2023-09-18T00:57:13;5.53;;;3.80;;
2620;SDS011;1320;48.128;11.592;2023-09-18T00:59:39;4.53;;;3.10;;
2620;SDS011;1320;48.128;11.592;2023-09-18T01:02:05;5.07;;;3.50;;
2620;SDS011;1320;48.128;11.592;2023-09-18T01:04:31;4.47;;;3.40;;
2620;SDS011;1320;48.128;11.592;2023-09-18T01:07:01;5.70;;;3.80;;
2620;SDS011;1320;48.128;11.592;2023-09-18T01:09:30;5.30;;;4.00;;
2620;SDS011;1320;48.128;11.592;2023-09-18T01:17:19;5.60;;;3.50;;
2620;SDS011;1320;48.128;11.592;2023-09-18T01:19:46;4.63;;;3.27;;
2620;SDS011;1320;48.128;11.592;2023-09-18T01:22:13;4.10;;;2.50;;
2620;SDS011;1320;48.128;11.592;2023-09-18T01:24:40;4.73;;;3.43;;
2620;SDS011;1320;48.128;11.592;2023-09-18T01:27:09;6.63;;;3.87;;
2620;SDS011;1320;48.128;11.592;2023-09-18T01:29:37;10.77;;;4.00;;
2620;SDS011;1320;48.128;11.592;2023-09-18T01:32:04;5.53;;;3.57;;
2620;SDS011;1320;48.128;11.592;2023-09-18T01:34:31;6.53;;;4.63;;
2620;SDS011;1320;48.128;11.592;2023-09-18T01:37:01;5.90;;;3.50;;
2620;SDS011;1320;48.128;11.592;2023-09-18T01:39:30;7.07;;;4.53;;
2620;SDS011;1320;48.128;11.592;2023-09-18T01:41:59;5.13;;;3.93;;
2620;SDS011;1320;48.128;11.592;2023-09-18T01:44:26;5.20;;;3.33;;
2620;SDS011;1320;48.128;11.592;2023-09-18T01:46:53;5.20;;;3.47;;
2620;SDS011;1320;48.128;11.592;2023-09-18T01:49:31;5.60;;;3.17;;
2620;SDS011;1320;48.128;11.592;2023-09-18T01:51:58;4.10;;;3.10;;
2620;SDS011;1320;48.128;11.592;2023-09-18T01:54:24;4.40;;;3.17;;
2620;SDS011;1320;48.128;11.592;2023-09-18T01:56:50;5.47;;;3.17;;
2620;SDS011;1320;48.128;11.592;2023-09-18T01:59:20;7.43;;;3.80;;
2620;SDS011;1320;48.128;11.592;2023-09-18T02:01:46;4.83;;;2.60;;
2620;SDS011;1320;48.128;11.592;2023-09-18T02:04:12;6.30;;;3.67;;
2620;SDS011;1320;48.128;11.592;2023-09-18T02:06:38;5.00;;;3.80;;
2620;SDS011;1320;48.128;11.592;2023-09-18T02:09:05;7.43;;;3.63;;
2620;SDS011;1320;48.128;11.592;2023-09-18T02:11:30;8.80;;;4.33;;
2620;SDS011;1320;48.128;11.592;2023-09-18T02:13:56;5.83;;;4.37;;
2620;SDS011;1320;48.128;11.592;2023-09-18T02:16:22;6.57;;;3.17;;
2620;SDS011;1320;48.128;11.592;2023-09-18T02:18:49;5.20;;;3.50;;
2620;SDS011;1320;48.128;11.592;2023-09-18T02:21:18;5.20;;;3.07;;
2620;SDS011;1320;48.128;11.592;2023-09-18T02:23:45;7.30;;;4.10;;
2620;SDS011;1320;48.128;11.592;2023-09-18T02:26:10;5.17;;;3.30;;
2620;SDS011;1320;48.128;11.592;2023-09-18T02:28:36;6.00;;;3.40;;
2620;SDS011;1320;48.128;11.592;2023-09-18T02:31:02;5.50;;;3.37;;
2620;SDS011;1320;48.128;11.592;2023-09-18T02:33:27;6.30;;;3.97;;
2620;SDS011;1320;48.128;11.592;2023-09-18T02:35:53;4.77;;;3.13;;
2620;SDS011;1320;48.128;11.592;2023-09-18T02:38:19;4.43;;;3.07;;
2620;SDS011;1320;48.128;11.592;2023-09-18T02:40:44;5.43;;;3.00;;
2620;SDS011;1320;48.128;11.592;2023-09-18T02:43:10;4.50;;;2.80;;
2620;SDS011;1320;48.128;11.592;2023-09-18T02:45:36;7.70;;;3.20;;
2620;SDS011;1320;48.128;11.592;2023-09-18T02:48:01;8.57;;;3.47;;
2620;SDS011;1320;48.128;11.592;2023-09-18T02:50:27;4.77;;;2.97;;
2620;SDS011;1320;48.128;11.592;2023-09-18T02:52:53;6.40;;;3.27;;
2620;SDS011;1320;48.128;11.592;2023-09-18T02:55:18;6.03;;;3.83;;
2620;SDS011;1320;48.128;11.592;2023-09-18T02:57:44;5.20;;;3.33;;
2620;SDS011;1320;48.128;11.592;2023-09-18T03:00:10;7.20;;;3.20;;
2620;SDS011;1320;48.128;11.592;2023-09-18T03:02:36;5.00;;;3.20;;
2620;SDS011;1320;48.128;11.592;2023-09-18T03:05:01;7.60;;;3.03;;
2620;SDS011;1320;48.128;11.592;2023-09-18T03:07:27;4.83;;;3.20;;
2620;SDS011;1320;48.128;11.592;2023-09-18T03:09:55;6.47;;;3.33;;
2620;SDS011;1320;48.128;11.592;2023-09-18T03:12:21;6.73;;;3.90;;
2620;SDS011;1320;48.128;11.592;2023-09-18T03:14:50;4.80;;;3.10;;
2620;SDS011;1320;48.128;11.592;2023-09-18T03:17:16;8.00;;;3.57;;
2620;SDS011;1320;48.128;11.592;2023-09-18T03:19:42;4.87;;;3.20;;
2620;SDS011;1320;48.128;11.592;2023-09-18T03:22:07;5.50;;;3.37;;
2620;SDS011;1320;48.128;11.592;2023-09-18T03:24:33;4.83;;;3.20;;
2620;SDS011;1320;48.128;11.592;2023-09-18T03:26:58;4.77;;;2.83;;
2620;SDS011;1320;48.128;11.592;2023-09-18T03:29:24;7.27;;;4.40;;
2620;SDS011;1320;48.128;11.592;2023-09-18T03:31:50;8.27;;;3.20;;
2620;SDS011;1320;48.128;11.592;2023-09-18T03:34:15;6.80;;;3.50;;
2620;SDS011;1320;48.128;11.592;2023-09-18T03:36:41;8.00;;;4.17;;
2620;SDS011;1320;48.128;11.592;2023-09-18T03:39:07;7.23;;;3.90;;
2620;SDS011;1320;48.128;11.592;2023-09-18T03:41:32;5.27;;;3.27;;
2620;SDS011;1320;48.128;11.592;2023-09-18T03:44:02;4.70;;;3.53;;
2620;SDS011;1320;48.128;11.592;2023-09-18T03:46:27;4.60;;;3.20;;
2620;SDS011;1320;48.128;11.592;2023-09-18T03:48:53;5.50;;;3.87;;
2620;SDS011;1320;48.128;11.592;2023-09-18T03:51:20;6.00;;;3.13;;
2620;SDS011;1320;48.128;11.592;2023-09-18T03:53:45;8.10;;;3.20;;
2620;SDS011;1320;48.128;11.592;2023-09-18T03:56:12;8.40;;;3.13;;
2620;SDS011;1320;48.128;11.592;2023-09-18T03:58:38;8.67;;;3.00;;
2620;SDS011;1320;48.128;11.592;2023-09-18T04:01:04;5.57;;;3.00;;
2620;SDS011;1320;48.128;11.592;2023-09-18T04:03:30;7.90;;;3.93;;
2620;SDS011;1320;48.128;11.592;2023-09-18T04:05:55;8.00;;;3.53;;
2620;SDS011;1320;48.128;11.592;2023-09-18T04:08:21;5.20;;;3.03;;
2620;SDS011;1320;48.128;11.592;2023-09-18T04:10:47;6.80;;;3.57;;
2620;SDS011;1320;48.128;11.592;2023-09-18T04:13:13;7.60;;;3.40;;
2620;SDS011;1320;48.128;11.592;2023-09-18T04:15:39;5.33;;;3.37;;
2620;SDS011;1320;48.128;11.592;2023-09-18T04:18:04;7.17;;;3.37;;
2620;SDS011;1320;48.128;11.592;2023-09-18T04:20:30;4.53;;;2.80;;
2620;SDS011;1320;48.128;11.592;2023-09-18T04:25:51;5.23;;;3.20;;
2620;SDS011;1320;48.128;11.592;2023-09-18T04:28:18;5.83;;;3.27;;
2620;SDS011;1320;48.128;11.592;2023-09-18T04:30:45;8.13;;;3.13;;
2620;SDS011;1320;48.128;11.592;2023-09-18T04:33:12;7.33;;;3.20;;
2620;SDS011;1320;48.128;11.592;2023-09-18T04:35:42;5.90;;;3.37;;
2620;SDS011;1320;48.128;11.592;2023-09-18T04:38:08;6.30;;;3.70;;
2620;SDS011;1320;48.128;11.592;2023-09-18T04:40:35;5.93;;;4.00;;
2620;SDS011;1320;48.128;11.592;2023-09-18T04:43:02;6.40;;;3.63;;
2620;SDS011;1320;48.128;11.592;2023-09-18T04:45:29;6.43;;;3.40;;
2620;SDS011;1320;48.128;11.592;2023-09-18T04:47:55;6.07;;;3.67;;
2620;SDS011;1320;48.128;11.592;2023-09-18T04:50:21;8.43;;;3.13;;
2620;SDS011;1320;48.128;11.592;2023-09-18T04:52:47;6.23;;;3.40;;
2620;SDS011;1320;48.128;11.592;2023-09-18T04:55:17;5.80;;;3.13;;
2620;SDS011;1320;48.128;11.592;2023-09-18T04:57:42;6.50;;;3.57;;
2620;SDS011;1320;48.128;11.592;2023-09-18T05:00:08;6.27;;;3.63;;
2620;SDS011;1320;48.128;11.592;2023-09-18T05:02:37;5.73;;;3.50;;
2620;SDS011;1320;48.128;11.592;2023-09-18T05:05:03;4.53;;;3.17;;
2620;SDS011;1320;48.128;11.592;2023-09-18T05:07:29;7.37;;;4.20;;
2620;SDS011;1320;48.128;11.592;2023-09-18T05:09:55;8.27;;;3.80;;
2620;SDS011;1320;48.128;11.592;2023-09-18T05:12:21;6.53;;;3.77;;
2620;SDS011;1320;48.128;11.592;2023-09-18T05:14:48;8.30;;;3.43;;
2620;SDS011;1320;48.128;11.592;2023-09-18T05:17:14;9.90;;;3.83;;
2620;SDS011;1320;48.128;11.592;2023-09-18T05:19:42;5.97;;;3.67;;
2620;SDS011;1320;48.128;11.592;2023-09-18T05:22:08;7.90;;;3.40;;
2620;SDS011;1320;48.128;11.592;2023-09-18T05:24:39;7.30;;;3.97;;
2620;SDS011;1320;48.128;11.592;2023-09-18T05:27:05;5.67;;;3.13;;
2620;SDS011;1320;48.128;11.592;2023-09-18T05:29:32;6.20;;;3.60;;
2620;SDS011;1320;48.128;11.592;2023-09-18T05:32:00;6.17;;;3.90;;
2620;SDS011;1320;48.128;11.592;2023-09-18T05:34:25;9.57;;;4.27;;
2620;SDS011;1320;48.128;11.592;2023-09-18T05:36:51;9.90;;;3.53;;
2620;SDS011;1320;48.128;11.592;2023-09-18T05:39:17;7.17;;;4.70;;
2620;SDS011;1320;48.128;11.592;2023-09-18T05:41:43;5.80;;;3.90;;
2620;SDS011;1320;48.128;11.592;2023-09-18T05:44:09;12.90;;;4.40;;
2620;SDS011;1320;48.128;11.592;2023-09-18T05:46:35;6.60;;;3.90;;
2620;SDS011;1320;48.128;11.592;2023-09-18T05:49:01;7.50;;;3.03;;
2620;SDS011;1320;48.128;11.592;2023-09-18T05:51:27;8.57;;;4.83;;
2620;SDS011;1320;48.128;11.592;2023-09-18T05:53:53;10.50;;;2.93;;
2620;SDS011;1320;48.128;11.592;2023-09-18T05:56:19;7.63;;;3.20;;
2620;SDS011;1320;48.128;11.592;2023-09-18T05:58:45;10.47;;;4.10;;
2620;SDS011;1320;48.128;11.592;2023-09-18T06:01:10;5.97;;;3.83;;
2620;SDS011;1320;48.128;11.592;2023-09-18T06:03:36;8.63;;;4.53;;
2620;SDS011;1320;48.128;11.592;2023-09-18T06:06:02;8.47;;;4.20;;
2620;SDS011;1320;48.128;11.592;2023-09-18T06:08:28;5.83;;;4.13;;
2620;SDS011;1320;48.128;11.592;2023-09-18T06:10:55;8.20;;;4.83;;
2620;SDS011;1320;48.128;11.592;2023-09-18T06:13:21;8.43;;;3.87;;
2620;SDS011;1320;48.128;11.592;2023-09-18T06:15:49;4.93;;;3.30;;
2620;SDS011;1320;48.128;11.592;2023-09-18T06:18:15;6.13;;;3.70;;
2620;SDS011;1320;48.128;11.592;2023-09-18T06:20:41;6.77;;;4.20;;
2620;SDS011;1320;48.128;11.592;2023-09-18T06:23:08;6.33;;;3.40;;
2620;SDS011;1320;48.128;11.592;2023-09-18T06:25:34;7.40;;;3.60;;
2620;SDS011;1320;48.128;11.592;2023-09-18T06:28:00;7.83;;;3.80;;
2620;SDS011;1320;48.128;11.592;2023-09-18T06:30:28;5.37;;;3.50;;
2620;SDS011;1320;48.128;11.592;2023-09-18T06:32:56;10.87;;;4.53;;
2620;SDS011;1320;48.128;11.592;2023-09-18T06:35:21;7.10;;;4.20;;
2620;SDS011;1320;48.128;11.592;2023-09-18T06:37:47;7.67;;;4.23;;
2620;SDS011;1320;48.128;11.592;2023-09-18T06:40:13;8.13;;;4.33;;
2620;SDS011;1320;48.128;11.592;2023-09-18T06:42:39;7.17;;;4.57;;
2620;SDS011;1320;48.128;11.592;2023-09-18T06:45:05;13.03;;;4.77;;
2620;SDS011;1320;48.128;11.592;2023-09-18T06:47:32;7.33;;;4.20;;
2620;SDS011;1320;48.128;11.592;2023-09-18T06:49:58;10.93;;;4.60;;
2620;SDS011;1320;48.128;11.592;2023-09-18T06:52:25;11.03;;;6.13;;
2620;SDS011;1320;48.128;11.592;2023-09-18T06:54:52;7.20;;;4.13;;
2620;SDS011;1320;48.128;11.592;2023-09-18T06:57:18;8.87;;;5.50;;
2620;SDS011;1320;48.128;11.592;2023-09-18T06:59:46;9.73;;;5.80;;
2620;SDS011;1320;48.128;11.592;2023-09-18T07:02:12;14.40;;;5.13;;
2620;SDS011;1320;48.128;11.592;2023-09-18T07:04:39;7.93;;;4.00;;
2620;SDS011;1320;48.128;11.592;2023-09-18T07:07:10;9.97;;;5.33;;
2620;SDS011;1320;48.128;11.592;2023-09-18T07:09:37;7.77;;;4.97;;
2620;SDS011;1320;48.128;11.592;2023-09-18T07:12:03;12.33;;;5.30;;
2620;SDS011;1320;48.128;11.592;2023-09-18T07:14:29;9.00;;;4.53;;
2620;SDS011;1320;48.128;11.592;2023-09-18T07:16:55;7.63;;;4.60;;
2620;SDS011;1320;48.128;11.592;2023-09-18T07:19:21;11.10;;;4.30;;
2620;SDS011;1320;48.128;11.592;2023-09-18T07:21:47;8.60;;;4.60;;
2620;SDS011;1320;48.128;11.592;2023-09-18T07:24:12;6.67;;;3.70;;
2620;SDS011;1320;48.128;11.592;2023-09-18T07:26:42;11.10;;;4.13;;
2620;SDS011;1320;48.128;11.592;2023-09-18T07:29:09;8.00;;;5.00;;
2620;SDS011;1320;48.128;11.592;2023-09-18T07:31:35;6.13;;;4.40;;
2620;SDS011;1320;48.128;11.592;2023-09-18T07:34:02;6.97;;;4.73;;
2620;SDS011;1320;48.128;11.592;2023-09-18T07:36:29;10.67;;;5.33;;
2620;SDS011;1320;48.128;11.592;2023-09-18T07:38:55;5.63;;;4.27;;
2620;SDS011;1320;48.128;11.592;2023-09-18T07:41:21;7.80;;;5.13;;
2620;SDS011;1320;48.128;11.592;2023-09-18T07:43:47;8.50;;;4.30;;
2620;SDS011;1320;48.128;11.592;2023-09-18T07:46:13;7.70;;;4.30;;
2620;SDS011;1320;48.128;11.592;2023-09-18T07:48:38;9.67;;;4.10;;
2620;SDS011;1320;48.128;11.592;2023-09-18T07:51:04;4.87;;;3.50;;
2620;SDS011;1320;48.128;11.592;2023-09-18T07:53:30;7.10;;;3.77;;
2620;SDS011;1320;48.128;11.592;2023-09-18T07:55:57;10.47;;;5.57;;
2620;SDS011;1320;48.128;11.592;2023-09-18T07:58:24;10.40;;;5.77;;
2620;SDS011;1320;48.128;11.592;2023-09-18T08:00:52;12.07;;;5.63;;
2620;SDS011;1320;48.128;11.592;2023-09-18T08:03:22;7.83;;;4.47;;
2620;SDS011;1320;48.128;11.592;2023-09-18T08:05:50;9.00;;;3.73;;
2620;SDS011;1320;48.128;11.592;2023-09-18T08:08:17;6.97;;;4.87;;
2620;SDS011;1320;48.128;11.592;2023-09-18T08:10:45;6.47;;;4.30;;
2620;SDS011;1320;48.128;11.592;2023-09-18T08:13:11;7.13;;;4.80;;
2620;SDS011;1320;48.128;11.592;2023-09-18T08:15:37;8.63;;;4.90;;
2620;SDS011;1320;48.128;11.592;2023-09-18T08:18:03;7.47;;;4.93;;
2620;SDS011;1320;48.128;11.592;2023-09-18T08:20:28;8.13;;;4.20;;
2620;SDS011;1320;48.128;11.592;2023-09-18T08:22:55;8.10;;;4.90;;
2620;SDS011;1320;48.128;11.592;2023-09-18T08:25:21;6.63;;;4.40;;
2620;SDS011;1320;48.128;11.592;2023-09-18T08:27:47;7.03;;;4.57;;
2620;SDS011;1320;48.128;11.592;2023-09-18T08:30:13;5.33;;;4.20;;
2620;SDS011;1320;48.128;11.592;2023-09-18T08:32:41;7.33;;;4.20;;
2620;SDS011;1320;48.128;11.592;2023-09-18T08:35:08;6.90;;;4.40;;
2620;SDS011;1320;48.128;11.592;2023-09-18T08:37:34;13.13;;;4.60;;
2620;SDS011;1320;48.128;11.592;2023-09-18T08:39:59;5.70;;;3.70;;
2620;SDS011;1320;48.128;11.592;2023-09-18T08:42:25;5.50;;;3.97;;
2620;SDS011;1320;48.128;11.592;2023-09-18T08:44:55;7.30;;;4.37;;
2620;SDS011;1320;48.128;11.592;2023-09-18T08:47:23;6.97;;;4.50;;
2620;SDS011;1320;48.128;11.592;2023-09-18T08:49:49;13.37;;;5.13;;
2620;SDS011;1320;48.128;11.592;2023-09-18T08:52:16;10.77;;;5.23;;
2620;SDS011;1320;48.128;11.592;2023-09-18T08:54:43;16.67;;;6.37;;
2620;SDS011;1320;48.128;11.592;2023-09-18T08:57:09;11.87;;;5.37;;
2620;SDS011;1320;48.128;11.592;2023-09-18T08:59:35;5.53;;;4.03;;
2620;SDS011;1320;48.128;11.592;2023-09-18T09:02:02;14.83;;;6.87;;
2620;SDS011;1320;48.128;11.592;2023-09-18T09:04:27;8.30;;;5.00;;
2620;SDS011;1320;48.128;11.592;2023-09-18T09:06:53;6.60;;;4.33;;
2620;SDS011;1320;48.128;11.592;2023-09-18T09:09:22;6.37;;;3.67;;
2620;SDS011;1320;48.128;11.592;2023-09-18T09:11:51;12.30;;;5.47;;
2620;SDS011;1320;48.128;11.592;2023-09-18T09:14:17;10.93;;;4.37;;
2620;SDS011;1320;48.128;11.592;2023-09-18T09:16:46;8.70;;;4.37;;
2620;SDS011;1320;48.128;11.592;2023-09-18T09:21:58;8.20;;;4.57;;
2620;SDS011;1320;48.128;11.592;2023-09-18T09:24:41;11.63;;;4.10;;
2620;SDS011;1320;48.128;11.592;2023-09-18T09:27:08;9.60;;;4.97;;
2620;SDS011;1320;48.128;11.592;2023-09-18T09:29:35;8.10;;;5.27;;
2620;SDS011;1320;48.128;11.592;2023-09-18T09:32:15;6.20;;;4.03;;
2620;SDS011;1320;48.128;11.592;2023-09-18T09:34:42;10.00;;;4.73;;
2620;SDS011;1320;48.128;11.592;2023-09-18T09:37:08;9.13;;;4.50;;
2620;SDS011;1320;48.128;11.592;2023-09-18T09:39:34;8.80;;;4.00;;
2620;SDS011;1320;48.128;11.592;2023-09-18T09:42:00;5.83;;;3.90;;
2620;SDS011;1320;48.128;11.592;2023-09-18T09:44:29;6.00;;;4.20;;
2620;SDS011;1320;48.128;11.592;2023-09-18T09:46:57;8.47;;;5.43;;
2620;SDS011;1320;48.128;11.592;2023-09-18T09:49:24;10.93;;;4.83;;
2620;SDS011;1320;48.128;11.592;2023-09-18T09:51:53;7.03;;;4.10;;
2620;SDS011;1320;48.128;11.592;2023-09-18T09:54:40;10.70;;;4.60;;
2620;SDS011;1320;48.128;11.592;2023-09-18T09:57:06;7.60;;;4.60;;
2620;SDS011;1320;48.128;11.592;2023-09-18T09:59:31;7.70;;;4.90;;
2620;SDS011;1320;48.128;11.592;2023-09-18T10:02:00;10.80;;;4.77;;
2620;SDS011;1320;48.128;11.592;2023-09-18T10:04:27;10.00;;;4.37;;
2620;SDS011;1320;48.128;11.592;2023-09-18T10:06:58;7.37;;;3.87;;
2620;SDS011;1320;48.128;11.592;2023-09-18T10:09:37;7.77;;;4.37;;
2620;SDS011;1320;48.128;11.592;2023-09-18T10:12:12;11.13;;;4.57;;
2620;SDS011;1320;48.128;11.592;2023-09-18T10:14:45;8.70;;;4.40;;
2620;SDS011;1320;48.128;11.592;2023-09-18T10:17:17;9.40;;;4.57;;
2620;SDS011;1320;48.128;11.592;2023-09-18T10:25:18;10.83;;;3.60;;
2620;SDS011;1320;48.128;11.592;2023-09-18T10:27:48;16.17;;;3.90;;
2620;SDS011;1320;48.128;11.592;2023-09-18T10:30:14;9.40;;;3.80;;
2620;SDS011;1320;48.128;11.592;2023-09-18T10:32:44;9.20;;;4.10;;
2620;SDS011;1320;48.128;11.592;2023-09-18T10:35:11;8.13;;;3.00;;
2620;SDS011;1320;48.128;11.592;2023-09-18T10:37:37;13.07;;;4.03;;
2620;SDS011;1320;48.128;11.592;2023-09-18T10:40:04;10.33;;;4.00;;
2620;SDS011;1320;48.128;11.592;2023-09-18T10:42:33;6.83;;;3.67;;
2620;SDS011;1320;48.128;11.592;2023-09-18T10:45:00;13.77;;;4.97;;
2620;SDS011;1320;48.128;11.592;2023-09-18T10:47:29;8.47;;;4.50;;
2620;SDS011;1320;48.128;11.592;2023-09-18T10:49:55;11.00;;;3.93;;
2620;SDS011;1320;48.128;11.592;2023-09-18T10:52:21;11.07;;;4.00;;
2620;SDS011;1320;48.128;11.592;2023-09-18T10:54:47;10.40;;;3.70;;
2620;SDS011;1320;48.128;11.592;2023-09-18T10:57:12;7.97;;;3.17;;
2620;SDS011;1320;48.128;11.592;2023-09-18T10:59:45;9.07;;;4.20;;
2620;SDS011;1320;48.128;11.592;2023-09-18T11:02:14;9.30;;;4.70;;
2620;SDS011;1320;48.128;11.592;2023-09-18T11:04:41;10.53;;;4.40;;
2620;SDS011;1320;48.128;11.592;2023-09-18T11:07:07;10.13;;;4.27;;
2620;SDS011;1320;48.128;11.592;2023-09-18T11:09:44;14.20;;;4.20;;
2620;SDS011;1320;48.128;11.592;2023-09-18T11:12:10;8.90;;;4.40;;
2620;SDS011;1320;48.128;11.592;2023-09-18T11:17:37;12.20;;;4.50;;
2620;SDS011;1320;48.128;11.592;2023-09-18T11:20:07;11.37;;;4.33;;
2620;SDS011;1320;48.128;11.592;2023-09-18T11:22:39;9.53;;;5.23;;
2620;SDS011;1320;48.128;11.592;2023-09-18T11:25:29;11.20;;;4.57;;
2620;SDS011;1320;48.128;11.592;2023-09-18T11:28:14;10.03;;;4.00;;
2620;SDS011;1320;48.128;11.592;2023-09-18T11:30:54;11.90;;;3.87;;
2620;SDS011;1320;48.128;11.592;2023-09-18T11:41:40;9.83;;;4.83;;
2620;SDS011;1320;48.128;11.592;2023-09-18T11:46:48;7.63;;;4.00;;
2620;SDS011;1320;48.128;11.592;2023-09-18T11:49:23;13.30;;;4.00;;
2620;SDS011;1320;48.128;11.592;2023-09-18T11:51:53;10.07;;;4.00;;
2620;SDS011;1320;48.128;11.592;2023-09-18T11:54:19;8.33;;;5.00;;
2620;SDS011;1320;48.128;11.592;2023-09-18T11:56:46;8.60;;;5.80;;
2620;SDS011;1320;48.128;11.592;2023-09-18T11:59:12;5.40;;;2.67;;
2620;SDS011;1320;48.128;11.592;2023-09-18T12:01:38;9.03;;;3.77;;
2620;SDS011;1320;48.128;11.592;2023-09-18T12:04:11;7.30;;;2.60;;
2620;SDS011;1320;48.128;11.592;2023-09-18T12:06:40;4.00;;;2.83;;
2620;SDS011;1320;48.128;11.592;2023-09-18T12:09:07;9.30;;;2.77;;
2620;SDS011;1320;48.128;11.592;2023-09-18T12:11:34;9.27;;;2.67;;
2620;SDS011;1320;48.128;11.592;2023-09-18T12:14:00;5.33;;;2.20;;
2620;SDS011;1320;48.128;11.592;2023-09-18T12:16:29;9.33;;;2.47;;
2620;SDS011;1320;48.128;11.592;2023-09-18T12:18:55;6.73;;;2.17;;
2620;SDS011;1320;48.128;11.592;2023-09-18T12:21:22;5.40;;;2.10;;
2620;SDS011;1320;48.128;11.592;2023-09-18T12:23:47;5.17;;;1.70;;
2620;SDS011;1320;48.128;11.592;2023-09-18T12:26:14;3.83;;;1.70;;
2620;SDS011;1320;48.128;11.592;2023-09-18T12:28:41;5.80;;;2.60;;
2620;SDS011;1320;48.128;11.592;2023-09-18T12:31:11;5.73;;;2.00;;
2620;SDS011;1320;48.128;11.592;2023-09-18T12:33:39;4.67;;;2.10;;
2620;SDS011;1320;48.128;11.592;2023-09-18T12:36:06;4.37;;;2.00;;
2620;SDS011;1320;48.128;11.592;2023-09-18T12:38:33;4.70;;;2.00;;
2620;SDS011;1320;48.128;11.592;2023-09-18T12:40:59;6.57;;;2.33;;
2620;SDS011;1320;48.128;11.592;2023-09-18T12:43:36;7.20;;;2.00;;
2620;SDS011;1320;48.128;11.592;2023-09-18T12:46:06;5.63;;;2.77;;
2620;SDS011;1320;48.128;11.592;2023-09-18T12:48:36;4.00;;;1.87;;
2620;SDS011;1320;48.128;11.592;2023-09-18T12:51:06;5.67;;;3.40;;
2620;SDS011;1320;48.128;11.592;2023-09-18T12:53:32;3.90;;;1.83;;
2620;SDS011;1320;48.128;11.592;2023-09-18T12:56:13;5.10;;;1.97;;
2620;SDS011;1320;48.128;11.592;2023-09-18T12:58:40;13.13;;;3.77;;
2620;SDS011;1320;48.128;11.592;2023-09-18T13:01:07;5.00;;;1.80;;
2620;SDS011;1320;48.128;11.592;2023-09-18T13:03:35;5.50;;;3.33;;
2620;SDS011;1320;48.128;11.592;2023-09-18T13:06:12;3.20;;;1.53;;
2620;SDS011;1320;48.128;11.592;2023-09-18T13:08:44;4.80;;;2.07;;
2620;SDS011;1320;48.128;11.592;2023-09-18T13:11:11;4.87;;;2.20;;
2620;SDS011;1320;48.128;11.592;2023-09-18T13:13:39;4.80;;;1.70;;
2620;SDS011;1320;48.128;11.592;2023-09-18T13:16:06;4.90;;;2.10;;
2620;SDS011;1320;48.128;11.592;2023-09-18T13:18:34;5.97;;;1.60;;
2620;SDS011;1320;48.128;11.592;2023-09-18T13:21:00;7.43;;;2.00;;
2620;SDS011;1320;48.128;11.592;2023-09-18T13:23:34;5.57;;;2.30;;
2620;SDS011;1320;48.128;11.592;2023-09-18T13:26:00;5.03;;;2.90;;
2620;SDS011;1320;48.128;11.592;2023-09-18T13:28:28;4.43;;;1.60;;
2620;SDS011;1320;48.128;11.592;2023-09-18T13:30:55;4.63;;;2.40;;
2620;SDS011;1320;48.128;11.592;2023-09-18T13:33:21;4.30;;;1.90;;
2620;SDS011;1320;48.128;11.592;2023-09-18T13:35:48;5.43;;;2.67;;
2620;SDS011;1320;48.128;11.592;2023-09-18T13:38:14;6.13;;;2.50;;
2620;SDS011;1320;48.128;11.592;2023-09-18T13:40:40;3.50;;;1.90;;
2620;SDS011;1320;48.128;11.592;2023-09-18T13:43:08;4.10;;;2.37;;
2620;SDS011;1320;48.128;11.592;2023-09-18T13:45:34;2.90;;;1.70;;
2620;SDS011;1320;48.128;11.592;2023-09-18T13:48:01;5.70;;;2.00;;
2620;SDS011;1320;48.128;11.592;2023-09-18T13:50:27;4.60;;;1.80;;
2620;SDS011;1320;48.128;11.592;2023-09-18T13:52:53;4.57;;;2.40;;
2620;SDS011;1320;48.128;11.592;2023-09-18T13:55:19;4.23;;;1.60;;
2620;SDS011;1320;48.128;11.592;2023-09-18T13:57:45;6.83;;;2.30;;
2620;SDS011;1320;48.128;11.592;2023-09-18T14:00:11;6.77;;;1.63;;
2620;SDS011;1320;48.128;11.592;2023-09-18T14:02:39;8.47;;;1.63;;
2620;SDS011;1320;48.128;11.592;2023-09-18T14:05:05;4.73;;;1.63;;
2620;SDS011;1320;48.128;11.592;2023-09-18T14:07:32;3.17;;;1.67;;
2620;SDS011;1320;48.128;11.592;2023-09-18T14:09:57;6.43;;;1.80;;
2620;SDS011;1320;48.128;11.592;2023-09-18T14:12:23;4.60;;;1.90;;
2620;SDS011;1320;48.128;11.592;2023-09-18T14:14:49;5.90;;;2.90;;
2620;SDS011;1320;48.128;11.592;2023-09-18T14:17:15;7.47;;;2.07;;
2620;SDS011;1320;48.128;11.592;2023-09-18T14:19:46;5.00;;;1.83;;
2620;SDS011;1320;48.128;11.592;2023-09-18T14:22:12;4.20;;;1.83;;
2620;SDS011;1320;48.128;11.592;2023-09-18T14:24:38;5.30;;;2.20;;
2620;SDS011;1320;48.128;11.592;2023-09-18T14:27:05;3.47;;;2.03;;
2620;SDS011;1320;48.128;11.592;2023-09-18T14:29:31;3.33;;;1.50;;
2620;SDS011;1320;48.128;11.592;2023-09-18T14:31:58;4.13;;;1.57;;
2620;SDS011;1320;48.128;11.592;2023-09-18T14:34:24;3.30;;;1.70;;
2620;SDS011;1320;48.128;11.592;2023-09-18T14:36:50;5.13;;;2.13;;
2620;SDS011;1320;48.128;11.592;2023-09-18T14:39:15;4.57;;;1.70;;
2620;SDS011;1320;48.128;11.592;2023-09-18T14:41:41;3.33;;;2.00;;
2620;SDS011;1320;48.128;11.592;2023-09-18T14:44:08;4.40;;;2.30;;
2620;SDS011;1320;48.128;11.592;2023-09-18T14:46:35;4.67;;;1.47;;
2620;SDS011;1320;48.128;11.592;2023-09-18T14:49:02;4.83;;;1.60;;
2620;SDS011;1320;48.128;11.592;2023-09-18T14:51:32;7.33;;;1.83;;
2620;SDS011;1320;48.128;11.592;2023-09-18T14:53:58;3.43;;;1.73;;
2620;SDS011;1320;48.128;11.592;2023-09-18T14:56:25;4.60;;;1.70;;
2620;SDS011;1320;48.128;11.592;2023-09-18T14:58:51;3.30;;;1.53;;
2620;SDS011;1320;48.128;11.592;2023-09-18T15:01:20;5.97;;;1.47;;
2620;SDS011;1320;48.128;11.592;2023-09-18T15:03:49;3.17;;;1.53;;
2620;SDS011;1320;48.128;11.592;2023-09-18T15:06:15;5.37;;;1.80;;
2620;SDS011;1320;48.128;11.592;2023-09-18T15:08:41;6.20;;;1.40;;
2620;SDS011;1320;48.128;11.592;2023-09-18T15:11:07;5.30;;;1.93;;
2620;SDS011;1320;48.128;11.592;2023-09-18T15:13:33;6.43;;;1.87;;
2620;SDS011;1320;48.128;11.592;2023-09-18T15:16:03;6.30;;;1.70;;
2620;SDS011;1320;48.128;11.592;2023-09-18T15:18:29;3.97;;;1.70;;
2620;SDS011;1320;48.128;11.592;2023-09-18T15:20:55;3.10;;;1.90;;
2620;SDS011;1320;48.128;11.592;2023-09-18T15:23:21;4.23;;;1.57;;
2620;SDS011;1320;48.128;11.592;2023-09-18T15:25:48;3.53;;;1.40;;
2620;SDS011;1320;48.128;11.592;2023-09-18T15:28:15;8.40;;;1.97;;
2620;SDS011;1320;48.128;11.592;2023-09-18T15:30:44;2.93;;;1.23;;